DLH2MC LEPA-EDDF
Flight info
| Callsign | DLH2MC |
|---|---|
| Flight time | 1h 44m |
| Altitude | 32000 |
| Route | MEROS DCT LAPIT DCT CHELY DCT LUMAS DCT MAXIR DCT LUSOL DCT BODRU DCT OKTET DCT IRMAR/N0479F400 DCT KINES DCT VANAS DCT MOBLO DCT UBIMA DCT SOSAL DCT KORED DCT BERSU N871 DITON/N0480F410 DCT LADOL/N0477F400 T163 EMPAX EMPAX5B |
| Aircraft | A359/H-SDE2E3GHIJ3J4J5LM1ORWXY/LB1D1 |
Departure
| Time | 2026-05-05 08:37 |
|---|---|
| Airport | Palma de Mallorca Airport (LEPA) |
Arrival
| Time | 2026-05-05 10:21 |
|---|---|
| Airport | Frankfurt Main Airport (EDDF) |
| Time | Latitude | Longitude | Altitude | Speed | Heading |
|---|---|---|---|---|---|
| 2026-05-05 08:17 | 39.55002 | 2.73727 | 44 ft | 0 kts | 239° |
| 2026-05-05 08:27 | 39.55011 | 2.73747 | 44 ft | 4 kts | 239° |
| 2026-05-05 08:27 | 39.55025 | 2.73777 | 43 ft | 4 kts | 240° |
| 2026-05-05 08:27 | 39.55036 | 2.73802 | 40 ft | 4 kts | 250° |
| 2026-05-05 08:28 | 39.55039 | 2.73834 | 43 ft | 4 kts | 291° |
| 2026-05-05 08:28 | 39.55024 | 2.73861 | 42 ft | 4 kts | 324° |
| 2026-05-05 08:28 | 39.55003 | 2.73879 | 43 ft | 4 kts | 329° |
| 2026-05-05 08:28 | 39.54981 | 2.73896 | 39 ft | 2 kts | 329° |
| 2026-05-05 08:29 | 39.54979 | 2.73897 | 41 ft | 0 kts | 329° |
| 2026-05-05 08:31 | 39.55008 | 2.73874 | 40 ft | 10 kts | 329° |
| 2026-05-05 08:32 | 39.55080 | 2.73818 | 44 ft | 14 kts | 329° |
| 2026-05-05 08:32 | 39.55118 | 2.73789 | 44 ft | 1 kts | 329° |
| 2026-05-05 08:32 | 39.55156 | 2.73783 | 44 ft | 7 kts | 14° |
| 2026-05-05 08:32 | 39.55195 | 2.73819 | 44 ft | 7 kts | 16° |
| 2026-05-05 08:33 | 39.55246 | 2.73794 | 44 ft | 9 kts | 329° |
| 2026-05-05 08:33 | 39.55312 | 2.73743 | 44 ft | 12 kts | 329° |
| 2026-05-05 08:33 | 39.55394 | 2.73678 | 44 ft | 15 kts | 328° |
| 2026-05-05 08:33 | 39.55493 | 2.73601 | 44 ft | 18 kts | 328° |
| 2026-05-05 08:34 | 39.55591 | 2.73523 | 44 ft | 12 kts | 329° |
| 2026-05-05 08:34 | 39.55667 | 2.73532 | 44 ft | 12 kts | 47° |
| 2026-05-05 08:34 | 39.55719 | 2.73637 | 44 ft | 15 kts | 58° |
| 2026-05-05 08:34 | 39.55779 | 2.73764 | 44 ft | 18 kts | 58° |
| 2026-05-05 08:35 | 39.55848 | 2.73913 | 44 ft | 21 kts | 59° |
| 2026-05-05 08:35 | 39.55928 | 2.74080 | 44 ft | 23 kts | 57° |
| 2026-05-05 08:35 | 39.56015 | 2.74262 | 44 ft | 19 kts | 58° |
| 2026-05-05 08:35 | 39.56081 | 2.74402 | 44 ft | 10 kts | 54° |
| 2026-05-05 08:36 | 39.56146 | 2.74442 | 44 ft | 12 kts | 2° |
| 2026-05-05 08:36 | 39.56228 | 2.74399 | 44 ft | 14 kts | 323° |
| 2026-05-05 08:36 | 39.56232 | 2.74275 | 44 ft | 23 kts | 241° |
| 2026-05-05 08:36 | 39.56053 | 2.73899 | 44 ft | 83 kts | 238° |
| 2026-05-05 08:37 | 39.55639 | 2.73025 | 45 ft | 145 kts | 238° |
| 2026-05-05 08:37 | 39.55060 | 2.71833 | 593 ft | 156 kts | 237° |
| 2026-05-05 08:37 | 39.54507 | 2.70655 | 1435 ft | 157 kts | 238° |
| 2026-05-05 08:37 | 39.53916 | 2.69334 | 1842 ft | 181 kts | 239° |
| 2026-05-05 08:38 | 39.53255 | 2.67851 | 2329 ft | 199 kts | 238° |
| 2026-05-05 08:38 | 39.52559 | 2.66298 | 3112 ft | 199 kts | 238° |
| 2026-05-05 08:38 | 39.51811 | 2.64753 | 3797 ft | 205 kts | 235° |
| 2026-05-05 08:38 | 39.50996 | 2.63208 | 4452 ft | 212 kts | 234° |
| 2026-05-05 08:39 | 39.50078 | 2.61710 | 5240 ft | 212 kts | 223° |
| 2026-05-05 08:39 | 39.48817 | 2.60625 | 5688 ft | 233 kts | 206° |
| 2026-05-05 08:39 | 39.47295 | 2.59660 | 6155 ft | 254 kts | 207° |
| 2026-05-05 08:39 | 39.45686 | 2.58567 | 6788 ft | 266 kts | 208° |
| 2026-05-05 08:40 | 39.43933 | 2.57858 | 7740 ft | 267 kts | 185° |
| 2026-05-05 08:40 | 39.42110 | 2.58293 | 8746 ft | 272 kts | 156° |
| 2026-05-05 08:40 | 39.40513 | 2.59629 | 9688 ft | 276 kts | 151° |
| 2026-05-05 08:40 | 39.38803 | 2.60824 | 10408 ft | 286 kts | 157° |
| 2026-05-05 08:41 | 39.36930 | 2.61954 | 10781 ft | 309 kts | 159° |
| 2026-05-05 08:41 | 39.35126 | 2.63651 | 11170 ft | 335 kts | 138° |
| 2026-05-05 08:41 | 39.33481 | 2.65826 | 11680 ft | 350 kts | 138° |
| 2026-05-05 08:41 | 39.31752 | 2.68086 | 12436 ft | 356 kts | 139° |
| 2026-05-05 08:42 | 39.30031 | 2.70421 | 13205 ft | 367 kts | 133° |
| 2026-05-05 08:42 | 39.28846 | 2.73394 | 13926 ft | 381 kts | 109° |
| 2026-05-05 08:42 | 39.28506 | 2.76826 | 14598 ft | 392 kts | 92° |
| 2026-05-05 08:42 | 39.28525 | 2.80378 | 15276 ft | 399 kts | 90° |
| 2026-05-05 08:43 | 39.28627 | 2.83984 | 15931 ft | 406 kts | 90° |
| 2026-05-05 08:43 | 39.28677 | 2.87653 | 16595 ft | 412 kts | 91° |
| 2026-05-05 08:43 | 39.28736 | 2.91370 | 17258 ft | 418 kts | 88° |
| 2026-05-05 08:43 | 39.29310 | 2.95085 | 17917 ft | 426 kts | 70° |
| 2026-05-05 08:44 | 39.30588 | 2.98488 | 18560 ft | 431 kts | 59° |
| 2026-05-05 08:44 | 39.32100 | 3.01860 | 19188 ft | 436 kts | 59° |
| 2026-05-05 08:44 | 39.33639 | 3.05254 | 19849 ft | 440 kts | 59° |
| 2026-05-05 08:44 | 39.35187 | 3.08690 | 20544 ft | 444 kts | 59° |
| 2026-05-05 08:45 | 39.36739 | 3.12157 | 21190 ft | 449 kts | 59° |
| 2026-05-05 08:45 | 39.38305 | 3.15671 | 21806 ft | 454 kts | 59° |
| 2026-05-05 08:45 | 39.39890 | 3.19237 | 22428 ft | 459 kts | 60° |
| 2026-05-05 08:45 | 39.41488 | 3.22841 | 23070 ft | 464 kts | 60° |
| 2026-05-05 08:46 | 39.43100 | 3.26481 | 23663 ft | 469 kts | 60° |
| 2026-05-05 08:46 | 39.44743 | 3.30089 | 24161 ft | 474 kts | 59° |
| 2026-05-05 08:46 | 39.46449 | 3.33765 | 24676 ft | 479 kts | 58° |
| 2026-05-05 08:46 | 39.48170 | 3.37481 | 25177 ft | 483 kts | 58° |
| 2026-05-05 08:47 | 39.49902 | 3.41235 | 25687 ft | 488 kts | 58° |
| 2026-05-05 08:47 | 39.51648 | 3.45030 | 26181 ft | 493 kts | 58° |
| 2026-05-05 08:47 | 39.53405 | 3.48857 | 26701 ft | 497 kts | 58° |
| 2026-05-05 08:47 | 39.55180 | 3.52729 | 27190 ft | 502 kts | 58° |
| 2026-05-05 08:48 | 39.56967 | 3.56634 | 27680 ft | 506 kts | 58° |
| 2026-05-05 08:48 | 39.58772 | 3.60585 | 28164 ft | 511 kts | 58° |
| 2026-05-05 08:48 | 39.60564 | 3.64512 | 28636 ft | 515 kts | 58° |
| 2026-05-05 08:48 | 39.62394 | 3.68527 | 29097 ft | 519 kts | 58° |
| 2026-05-05 08:49 | 39.64237 | 3.72577 | 29557 ft | 524 kts | 58° |
| 2026-05-05 08:49 | 39.66096 | 3.76666 | 29987 ft | 528 kts | 58° |
| 2026-05-05 08:49 | 39.67966 | 3.80785 | 30376 ft | 532 kts | 58° |
| 2026-05-05 08:49 | 39.69843 | 3.84927 | 30826 ft | 533 kts | 58° |
| 2026-05-05 08:50 | 39.71726 | 3.89086 | 31204 ft | 536 kts | 58° |
| 2026-05-05 08:50 | 39.73598 | 3.93227 | 31571 ft | 540 kts | 58° |
| 2026-05-05 08:50 | 39.75503 | 3.97445 | 31933 ft | 543 kts | 58° |
| 2026-05-05 08:50 | 39.77417 | 4.01690 | 32262 ft | 546 kts | 59° |
| 2026-05-05 08:51 | 39.79340 | 4.05962 | 32610 ft | 549 kts | 59° |
| 2026-05-05 08:51 | 39.81275 | 4.10263 | 32931 ft | 552 kts | 59° |
| 2026-05-05 08:51 | 39.83228 | 4.14573 | 33244 ft | 554 kts | 57° |
| 2026-05-05 08:51 | 39.85587 | 4.18522 | 33526 ft | 552 kts | 42° |
| 2026-05-05 08:52 | 39.88560 | 4.21613 | 33856 ft | 544 kts | 26° |
| 2026-05-05 08:52 | 39.91951 | 4.23666 | 34131 ft | 533 kts | 11° |
| 2026-05-05 08:52 | 39.95481 | 4.24615 | 34465 ft | 521 kts | 359° |
| 2026-05-05 08:52 | 39.99077 | 4.25160 | 34788 ft | 521 kts | 359° |
| 2026-05-05 08:53 | 40.02673 | 4.25768 | 35140 ft | 521 kts | 1° |
| 2026-05-05 08:53 | 40.06262 | 4.26472 | 35543 ft | 520 kts | 2° |
| 2026-05-05 08:53 | 40.09830 | 4.27233 | 35913 ft | 520 kts | 2° |
| 2026-05-05 08:53 | 40.13394 | 4.28029 | 36253 ft | 520 kts | 3° |
| 2026-05-05 08:54 | 40.16955 | 4.28845 | 36568 ft | 519 kts | 3° |
| 2026-05-05 08:54 | 40.20509 | 4.29671 | 36894 ft | 519 kts | 3° |
| 2026-05-05 08:54 | 40.24065 | 4.30504 | 37195 ft | 519 kts | 4° |
| 2026-05-05 08:54 | 40.27569 | 4.31330 | 37508 ft | 518 kts | 4° |
| 2026-05-05 08:55 | 40.31115 | 4.32168 | 37819 ft | 517 kts | 4° |
| 2026-05-05 08:55 | 40.34652 | 4.33006 | 38117 ft | 517 kts | 4° |
| 2026-05-05 08:55 | 40.38193 | 4.33846 | 38414 ft | 516 kts | 4° |
| 2026-05-05 08:55 | 40.41723 | 4.34685 | 38706 ft | 516 kts | 4° |
| 2026-05-05 08:56 | 40.45255 | 4.35524 | 38911 ft | 516 kts | 4° |
| 2026-05-05 08:56 | 40.48784 | 4.36365 | 39120 ft | 515 kts | 4° |
| 2026-05-05 08:56 | 40.52305 | 4.37207 | 39332 ft | 514 kts | 4° |
| 2026-05-05 08:56 | 40.55823 | 4.38049 | 39555 ft | 513 kts | 4° |
| 2026-05-05 08:57 | 40.59290 | 4.38878 | 39758 ft | 513 kts | 4° |
| 2026-05-05 08:57 | 40.62801 | 4.39716 | 39928 ft | 513 kts | 4° |
| 2026-05-05 08:57 | 40.66323 | 4.40557 | 39965 ft | 515 kts | 4° |
| 2026-05-05 08:58 | 40.73373 | 4.42245 | 39967 ft | 515 kts | 4° |
| 2026-05-05 08:58 | 40.80419 | 4.43939 | 39966 ft | 515 kts | 4° |
| 2026-05-05 08:59 | 40.87473 | 4.45638 | 39967 ft | 516 kts | 4° |
| 2026-05-05 08:59 | 40.94486 | 4.47328 | 39967 ft | 516 kts | 4° |
| 2026-05-05 09:00 | 41.01553 | 4.49044 | 39967 ft | 516 kts | 5° |
| 2026-05-05 09:00 | 41.08621 | 4.50766 | 39972 ft | 517 kts | 5° |
| 2026-05-05 09:01 | 41.15714 | 4.52494 | 39968 ft | 519 kts | 5° |
| 2026-05-05 09:01 | 41.22761 | 4.54214 | 39964 ft | 519 kts | 5° |
| 2026-05-05 09:02 | 41.29860 | 4.55950 | 39966 ft | 519 kts | 5° |
| 2026-05-05 09:02 | 41.36963 | 4.57690 | 39958 ft | 519 kts | 5° |
| 2026-05-05 09:03 | 41.44073 | 4.59437 | 39966 ft | 519 kts | 5° |
| 2026-05-05 09:03 | 41.51133 | 4.61175 | 39972 ft | 520 kts | 5° |
| 2026-05-05 09:04 | 41.58250 | 4.62930 | 39969 ft | 520 kts | 5° |
| 2026-05-05 09:04 | 41.65364 | 4.64689 | 39967 ft | 520 kts | 5° |
| 2026-05-05 09:05 | 41.72435 | 4.66835 | 39960 ft | 526 kts | 15° |
| 2026-05-05 09:05 | 41.79000 | 4.71156 | 39973 ft | 532 kts | 26° |
| 2026-05-05 09:06 | 41.85378 | 4.76211 | 39975 ft | 533 kts | 28° |
| 2026-05-05 09:06 | 41.91717 | 4.81386 | 39970 ft | 533 kts | 28° |
| 2026-05-05 09:07 | 41.98054 | 4.86547 | 39965 ft | 532 kts | 28° |
| 2026-05-05 09:07 | 42.04396 | 4.91689 | 39963 ft | 532 kts | 28° |
| 2026-05-05 09:08 | 42.10696 | 4.96798 | 39964 ft | 532 kts | 28° |
| 2026-05-05 09:08 | 42.17026 | 5.01943 | 39961 ft | 531 kts | 28° |
| 2026-05-05 09:09 | 42.23343 | 5.07091 | 39964 ft | 530 kts | 28° |
| 2026-05-05 09:09 | 42.29655 | 5.12247 | 39977 ft | 530 kts | 28° |
| 2026-05-05 09:10 | 42.35923 | 5.17380 | 39958 ft | 530 kts | 28° |
| 2026-05-05 09:10 | 42.42234 | 5.22560 | 39957 ft | 530 kts | 28° |
| 2026-05-05 09:11 | 42.48542 | 5.27751 | 39961 ft | 530 kts | 28° |
| 2026-05-05 09:11 | 42.54845 | 5.32949 | 39955 ft | 531 kts | 29° |
| 2026-05-05 09:12 | 42.61104 | 5.38124 | 39948 ft | 529 kts | 29° |
| 2026-05-05 09:12 | 42.67386 | 5.43330 | 39952 ft | 529 kts | 29° |
| 2026-05-05 09:13 | 42.73665 | 5.48546 | 39952 ft | 529 kts | 29° |
| 2026-05-05 09:13 | 42.79940 | 5.53771 | 39953 ft | 529 kts | 29° |
| 2026-05-05 09:14 | 42.86212 | 5.59006 | 39949 ft | 529 kts | 29° |
| 2026-05-05 09:14 | 42.92440 | 5.64217 | 39954 ft | 529 kts | 29° |
| 2026-05-05 09:15 | 42.98715 | 5.69480 | 39950 ft | 529 kts | 29° |
| 2026-05-05 09:15 | 43.04987 | 5.74754 | 39949 ft | 529 kts | 29° |
| 2026-05-05 09:16 | 43.11246 | 5.80029 | 39961 ft | 529 kts | 30° |
| 2026-05-05 09:16 | 43.17468 | 5.85286 | 39954 ft | 529 kts | 30° |
| 2026-05-05 09:17 | 43.23733 | 5.90591 | 39953 ft | 529 kts | 30° |
| 2026-05-05 09:17 | 43.30001 | 5.95909 | 39960 ft | 530 kts | 30° |
| 2026-05-05 09:18 | 43.36322 | 6.01129 | 39956 ft | 529 kts | 24° |
| 2026-05-05 09:18 | 43.43174 | 6.04215 | 39950 ft | 518 kts | 4° |
| 2026-05-05 09:19 | 43.50326 | 6.05263 | 39955 ft | 517 kts | 0° |
| 2026-05-05 09:19 | 43.57492 | 6.05951 | 39947 ft | 516 kts | 359° |
| 2026-05-05 09:20 | 43.64659 | 6.06608 | 39951 ft | 516 kts | 360° |
| 2026-05-05 09:20 | 43.71825 | 6.07305 | 39954 ft | 516 kts | 360° |
| 2026-05-05 09:21 | 43.78852 | 6.09306 | 39941 ft | 525 kts | 18° |
| 2026-05-05 09:21 | 43.85544 | 6.13428 | 39949 ft | 527 kts | 23° |
| 2026-05-05 09:22 | 43.92118 | 6.17928 | 39952 ft | 527 kts | 24° |
| 2026-05-05 09:22 | 43.98675 | 6.22483 | 39946 ft | 527 kts | 24° |
| 2026-05-05 09:23 | 44.05205 | 6.26989 | 39941 ft | 527 kts | 24° |
| 2026-05-05 09:23 | 44.11779 | 6.31510 | 39942 ft | 527 kts | 24° |
| 2026-05-05 09:24 | 44.18355 | 6.36039 | 39954 ft | 527 kts | 24° |
| 2026-05-05 09:24 | 44.24929 | 6.40578 | 39945 ft | 527 kts | 24° |
| 2026-05-05 09:25 | 44.31451 | 6.45090 | 39947 ft | 526 kts | 24° |
| 2026-05-05 09:25 | 44.38004 | 6.49635 | 39953 ft | 526 kts | 24° |
| 2026-05-05 09:26 | 44.44541 | 6.54178 | 39954 ft | 524 kts | 24° |
| 2026-05-05 09:26 | 44.51054 | 6.58714 | 39945 ft | 522 kts | 24° |
| 2026-05-05 09:27 | 44.57506 | 6.63222 | 39944 ft | 522 kts | 25° |
| 2026-05-05 09:27 | 44.64009 | 6.67782 | 39959 ft | 522 kts | 25° |
| 2026-05-05 09:28 | 44.70503 | 6.72343 | 39970 ft | 522 kts | 25° |
| 2026-05-05 09:28 | 44.77066 | 6.76682 | 39961 ft | 520 kts | 17° |
| 2026-05-05 09:29 | 44.84084 | 6.78601 | 39953 ft | 511 kts | 357° |
| 2026-05-05 09:29 | 44.91134 | 6.78444 | 39973 ft | 510 kts | 354° |
| 2026-05-05 09:30 | 44.98215 | 6.77937 | 39975 ft | 510 kts | 353° |
| 2026-05-05 09:30 | 45.05306 | 6.77399 | 39982 ft | 511 kts | 353° |
| 2026-05-05 09:31 | 45.12405 | 6.76905 | 39980 ft | 511 kts | 353° |
| 2026-05-05 09:31 | 45.19457 | 6.76437 | 39969 ft | 510 kts | 354° |
| 2026-05-05 09:32 | 45.26554 | 6.75967 | 39945 ft | 511 kts | 354° |
| 2026-05-05 09:32 | 45.33652 | 6.75493 | 39952 ft | 510 kts | 354° |
| 2026-05-05 09:33 | 45.40750 | 6.75019 | 39941 ft | 511 kts | 354° |
| 2026-05-05 09:33 | 45.47798 | 6.74550 | 39943 ft | 511 kts | 354° |
| 2026-05-05 09:34 | 45.54898 | 6.74070 | 39942 ft | 510 kts | 354° |
| 2026-05-05 09:34 | 45.61984 | 6.73578 | 39925 ft | 509 kts | 354° |
| 2026-05-05 09:35 | 45.69066 | 6.73090 | 39912 ft | 510 kts | 354° |
| 2026-05-05 09:35 | 45.79704 | 6.72355 | 39912 ft | 510 kts | 354° |
| 2026-05-05 09:36 | 45.86746 | 6.71879 | 39911 ft | 510 kts | 354° |
| 2026-05-05 09:36 | 45.93840 | 6.71397 | 39914 ft | 511 kts | 354° |
| 2026-05-05 09:37 | 46.00943 | 6.70912 | 39915 ft | 511 kts | 354° |
| 2026-05-05 09:37 | 46.08049 | 6.70428 | 39905 ft | 511 kts | 354° |
| 2026-05-05 09:38 | 46.15151 | 6.71337 | 39904 ft | 517 kts | 12° |
| 2026-05-05 09:38 | 46.22058 | 6.73980 | 40009 ft | 518 kts | 14° |
| 2026-05-05 09:39 | 46.25513 | 6.75440 | 40114 ft | 518 kts | 15° |
| 2026-05-05 09:39 | 46.28966 | 6.76927 | 40235 ft | 517 kts | 15° |
| 2026-05-05 09:39 | 46.32415 | 6.78419 | 40359 ft | 517 kts | 15° |
| 2026-05-05 09:39 | 46.35860 | 6.79906 | 40467 ft | 517 kts | 15° |
| 2026-05-05 09:40 | 46.39308 | 6.81389 | 40600 ft | 517 kts | 15° |
| 2026-05-05 09:40 | 46.42754 | 6.82864 | 40720 ft | 516 kts | 15° |
| 2026-05-05 09:40 | 46.46202 | 6.84336 | 40848 ft | 516 kts | 14° |
| 2026-05-05 09:40 | 46.49589 | 6.85812 | 40879 ft | 516 kts | 17° |
| 2026-05-05 09:41 | 46.55985 | 6.90497 | 40903 ft | 518 kts | 36° |
| 2026-05-05 09:41 | 46.61111 | 6.97827 | 40905 ft | 518 kts | 50° |
| 2026-05-05 09:42 | 46.65682 | 7.05954 | 40908 ft | 519 kts | 52° |
| 2026-05-05 09:42 | 46.70170 | 7.14210 | 40909 ft | 519 kts | 52° |
| 2026-05-05 09:43 | 46.74636 | 7.22390 | 40920 ft | 519 kts | 52° |
| 2026-05-05 09:43 | 46.79145 | 7.30611 | 40887 ft | 519 kts | 51° |
| 2026-05-05 09:44 | 46.83655 | 7.38833 | 40882 ft | 519 kts | 51° |
| 2026-05-05 09:44 | 46.88155 | 7.47056 | 40883 ft | 518 kts | 51° |
| 2026-05-05 09:45 | 46.92641 | 7.55307 | 40898 ft | 518 kts | 52° |
| 2026-05-05 09:45 | 46.97079 | 7.63501 | 40897 ft | 516 kts | 52° |
| 2026-05-05 09:46 | 47.01529 | 7.71735 | 40898 ft | 515 kts | 52° |
| 2026-05-05 09:46 | 47.05970 | 7.79976 | 40892 ft | 515 kts | 52° |
| 2026-05-05 09:47 | 47.10405 | 7.88228 | 40894 ft | 515 kts | 52° |
| 2026-05-05 09:47 | 47.14599 | 7.96652 | 40893 ft | 514 kts | 57° |
| 2026-05-05 09:48 | 47.18452 | 8.05478 | 40895 ft | 513 kts | 58° |
| 2026-05-05 09:48 | 47.22232 | 8.14372 | 40894 ft | 513 kts | 59° |
| 2026-05-05 09:49 | 47.24594 | 8.19965 | 40897 ft | 513 kts | 59° |
| 2026-05-05 09:49 | 47.28460 | 8.28538 | 40898 ft | 513 kts | 50° |
| 2026-05-05 09:50 | 47.33750 | 8.35494 | 40899 ft | 510 kts | 31° |
| 2026-05-05 09:50 | 47.40012 | 8.40382 | 40901 ft | 509 kts | 25° |
| 2026-05-05 09:51 | 47.46410 | 8.44872 | 40885 ft | 510 kts | 24° |
| 2026-05-05 09:51 | 47.52781 | 8.49310 | 40885 ft | 510 kts | 25° |
| 2026-05-05 09:52 | 47.59183 | 8.53833 | 40886 ft | 510 kts | 25° |
| 2026-05-05 09:52 | 47.65570 | 8.58388 | 40886 ft | 510 kts | 25° |
| 2026-05-05 09:53 | 47.71955 | 8.62962 | 40897 ft | 510 kts | 25° |
| 2026-05-05 09:53 | 47.78298 | 8.67516 | 40885 ft | 510 kts | 25° |
| 2026-05-05 09:54 | 47.84677 | 8.72106 | 40880 ft | 509 kts | 25° |
| 2026-05-05 09:54 | 47.91054 | 8.76708 | 40710 ft | 509 kts | 25° |
| 2026-05-05 09:55 | 47.94234 | 8.79008 | 40475 ft | 508 kts | 25° |
| 2026-05-05 09:55 | 47.97419 | 8.81314 | 40229 ft | 509 kts | 25° |
| 2026-05-05 09:55 | 48.00604 | 8.83622 | 39992 ft | 509 kts | 25° |
| 2026-05-05 09:55 | 48.03782 | 8.85930 | 39518 ft | 507 kts | 25° |
| 2026-05-05 09:56 | 48.06957 | 8.88238 | 38910 ft | 507 kts | 25° |
| 2026-05-05 09:56 | 48.10093 | 8.90521 | 38227 ft | 508 kts | 26° |
| 2026-05-05 09:56 | 48.13278 | 8.92810 | 37510 ft | 508 kts | 24° |
| 2026-05-05 09:56 | 48.16586 | 8.94625 | 36852 ft | 506 kts | 15° |
| 2026-05-05 09:57 | 48.20030 | 8.95693 | 36182 ft | 505 kts | 6° |
| 2026-05-05 09:57 | 48.23516 | 8.96323 | 35484 ft | 506 kts | 5° |
| 2026-05-05 09:57 | 48.27020 | 8.96878 | 34792 ft | 507 kts | 5° |
| 2026-05-05 09:57 | 48.30547 | 8.97422 | 34005 ft | 511 kts | 5° |
| 2026-05-05 09:58 | 48.34101 | 8.97965 | 33091 ft | 515 kts | 4° |
| 2026-05-05 09:58 | 48.37673 | 8.98509 | 32381 ft | 515 kts | 5° |
| 2026-05-05 09:58 | 48.41223 | 8.99051 | 31817 ft | 511 kts | 5° |
| 2026-05-05 09:58 | 48.44750 | 8.99590 | 31228 ft | 508 kts | 5° |
| 2026-05-05 09:59 | 48.48209 | 9.00116 | 30653 ft | 505 kts | 5° |
| 2026-05-05 09:59 | 48.51693 | 9.00647 | 30070 ft | 502 kts | 5° |
| 2026-05-05 09:59 | 48.55156 | 9.01177 | 29419 ft | 499 kts | 5° |
| 2026-05-05 09:59 | 48.58595 | 9.01705 | 28837 ft | 494 kts | 5° |
| 2026-05-05 10:00 | 48.62001 | 9.02227 | 28254 ft | 489 kts | 5° |
| 2026-05-05 10:00 | 48.65359 | 9.02814 | 27695 ft | 484 kts | 8° |
| 2026-05-05 10:00 | 48.68672 | 9.03620 | 27127 ft | 480 kts | 9° |
| 2026-05-05 10:00 | 48.71947 | 9.04450 | 26568 ft | 476 kts | 9° |
| 2026-05-05 10:01 | 48.75155 | 9.05250 | 26014 ft | 472 kts | 9° |
| 2026-05-05 10:01 | 48.78379 | 9.06040 | 25456 ft | 468 kts | 8° |
| 2026-05-05 10:01 | 48.81585 | 9.06818 | 24895 ft | 464 kts | 8° |
| 2026-05-05 10:01 | 48.84757 | 9.07583 | 24338 ft | 460 kts | 8° |
| 2026-05-05 10:02 | 48.87912 | 9.08342 | 23772 ft | 457 kts | 8° |
| 2026-05-05 10:02 | 48.91052 | 9.08987 | 23171 ft | 454 kts | 5° |
| 2026-05-05 10:02 | 48.94184 | 9.09400 | 22556 ft | 449 kts | 4° |
| 2026-05-05 10:02 | 48.97284 | 9.09791 | 21997 ft | 444 kts | 4° |
| 2026-05-05 10:03 | 49.00348 | 9.10195 | 21429 ft | 440 kts | 5° |
| 2026-05-05 10:03 | 49.03381 | 9.10609 | 20862 ft | 436 kts | 5° |
| 2026-05-05 10:03 | 49.06384 | 9.11026 | 20292 ft | 432 kts | 5° |
| 2026-05-05 10:03 | 49.09325 | 9.11439 | 19735 ft | 428 kts | 5° |
| 2026-05-05 10:04 | 49.12283 | 9.11858 | 19165 ft | 425 kts | 5° |
| 2026-05-05 10:04 | 49.15214 | 9.12275 | 18599 ft | 422 kts | 5° |
| 2026-05-05 10:04 | 49.18124 | 9.12690 | 18009 ft | 419 kts | 5° |
| 2026-05-05 10:04 | 49.21017 | 9.13104 | 17407 ft | 415 kts | 5° |
| 2026-05-05 10:05 | 49.23874 | 9.13514 | 16842 ft | 410 kts | 5° |
| 2026-05-05 10:05 | 49.26702 | 9.13921 | 16274 ft | 406 kts | 5° |
| 2026-05-05 10:05 | 49.29483 | 9.14561 | 15709 ft | 402 kts | 11° |
| 2026-05-05 10:05 | 49.32196 | 9.15482 | 15162 ft | 398 kts | 12° |
| 2026-05-05 10:06 | 49.34876 | 9.16437 | 14638 ft | 393 kts | 12° |
| 2026-05-05 10:06 | 49.37498 | 9.17374 | 14101 ft | 390 kts | 12° |
| 2026-05-05 10:06 | 49.40127 | 9.18312 | 13530 ft | 386 kts | 12° |
| 2026-05-05 10:06 | 49.42733 | 9.19240 | 12965 ft | 382 kts | 12° |
| 2026-05-05 10:07 | 49.45305 | 9.20155 | 12416 ft | 377 kts | 12° |
| 2026-05-05 10:07 | 49.47841 | 9.21057 | 11892 ft | 372 kts | 12° |
| 2026-05-05 10:07 | 49.50345 | 9.21948 | 11356 ft | 367 kts | 13° |
| 2026-05-05 10:07 | 49.52819 | 9.22829 | 10839 ft | 364 kts | 13° |
| 2026-05-05 10:08 | 49.55270 | 9.23708 | 10655 ft | 362 kts | 13° |
| 2026-05-05 10:08 | 49.57737 | 9.24589 | 10560 ft | 364 kts | 13° |
| 2026-05-05 10:08 | 49.60167 | 9.25456 | 10437 ft | 363 kts | 13° |
| 2026-05-05 10:08 | 49.62620 | 9.26334 | 10312 ft | 358 kts | 13° |
| 2026-05-05 10:09 | 49.64990 | 9.27184 | 10169 ft | 342 kts | 13° |
| 2026-05-05 10:09 | 49.67255 | 9.27995 | 10021 ft | 327 kts | 13° |
| 2026-05-05 10:09 | 49.69425 | 9.28772 | 9895 ft | 313 kts | 13° |
| 2026-05-05 10:09 | 49.71505 | 9.29516 | 9769 ft | 300 kts | 13° |
| 2026-05-05 10:10 | 49.73524 | 9.30237 | 9653 ft | 298 kts | 13° |
| 2026-05-05 10:10 | 49.75541 | 9.30957 | 9555 ft | 298 kts | 13° |
| 2026-05-05 10:10 | 49.77557 | 9.31678 | 9461 ft | 298 kts | 13° |
| 2026-05-05 10:10 | 49.79582 | 9.32333 | 9339 ft | 297 kts | 7° |
| 2026-05-05 10:11 | 49.81623 | 9.32053 | 9105 ft | 295 kts | 342° |
| 2026-05-05 10:11 | 49.83520 | 9.30895 | 8837 ft | 293 kts | 334° |
| 2026-05-05 10:11 | 49.85340 | 9.29585 | 8569 ft | 292 kts | 334° |
| 2026-05-05 10:11 | 49.87172 | 9.28245 | 8323 ft | 291 kts | 334° |
| 2026-05-05 10:12 | 49.89003 | 9.26900 | 8061 ft | 290 kts | 333° |
| 2026-05-05 10:12 | 49.90823 | 9.25564 | 7821 ft | 289 kts | 334° |
| 2026-05-05 10:12 | 49.92529 | 9.23957 | 7569 ft | 287 kts | 319° |
| 2026-05-05 10:12 | 49.94000 | 9.21878 | 7324 ft | 285 kts | 314° |
| 2026-05-05 10:13 | 49.95412 | 9.19716 | 7073 ft | 284 kts | 314° |
| 2026-05-05 10:13 | 49.96809 | 9.17556 | 6830 ft | 283 kts | 314° |
| 2026-05-05 10:13 | 49.98183 | 9.15430 | 6590 ft | 282 kts | 313° |
| 2026-05-05 10:13 | 49.99591 | 9.13252 | 6354 ft | 282 kts | 314° |
| 2026-05-05 10:14 | 50.00961 | 9.11145 | 6109 ft | 280 kts | 314° |
| 2026-05-05 10:14 | 50.02345 | 9.09024 | 5860 ft | 279 kts | 314° |
| 2026-05-05 10:14 | 50.03719 | 9.06911 | 5600 ft | 277 kts | 314° |
| 2026-05-05 10:14 | 50.05085 | 9.04802 | 5335 ft | 276 kts | 314° |
| 2026-05-05 10:15 | 50.06442 | 9.02701 | 5078 ft | 274 kts | 314° |
| 2026-05-05 10:15 | 50.07787 | 9.00609 | 4854 ft | 273 kts | 314° |
| 2026-05-05 10:15 | 50.09121 | 8.98516 | 4599 ft | 271 kts | 314° |
| 2026-05-05 10:15 | 50.10295 | 8.96248 | 4327 ft | 269 kts | 297° |
| 2026-05-05 10:16 | 50.10944 | 8.93579 | 4084 ft | 266 kts | 285° |
| 2026-05-05 10:16 | 50.11285 | 8.90833 | 3990 ft | 250 kts | 271° |
| 2026-05-05 10:16 | 50.11072 | 8.88240 | 3980 ft | 233 kts | 252° |
| 2026-05-05 10:16 | 50.10524 | 8.85951 | 3976 ft | 222 kts | 246° |
| 2026-05-05 10:17 | 50.09963 | 8.83740 | 3796 ft | 217 kts | 249° |
| 2026-05-05 10:17 | 50.09451 | 8.81540 | 3504 ft | 215 kts | 249° |
| 2026-05-05 10:17 | 50.08939 | 8.79363 | 3205 ft | 212 kts | 249° |
| 2026-05-05 10:17 | 50.08430 | 8.77235 | 2876 ft | 206 kts | 249° |
| 2026-05-05 10:18 | 50.07950 | 8.75216 | 2597 ft | 192 kts | 249° |
| 2026-05-05 10:18 | 50.07509 | 8.73360 | 2355 ft | 180 kts | 250° |
| 2026-05-05 10:18 | 50.07087 | 8.71590 | 2119 ft | 169 kts | 250° |
| 2026-05-05 10:18 | 50.06691 | 8.69926 | 1894 ft | 160 kts | 250° |
| 2026-05-05 10:19 | 50.06316 | 8.68349 | 1698 ft | 151 kts | 250° |
| 2026-05-05 10:19 | 50.05962 | 8.66862 | 1484 ft | 143 kts | 250° |
| 2026-05-05 10:19 | 50.05618 | 8.65419 | 1310 ft | 142 kts | 250° |
| 2026-05-05 10:19 | 50.05273 | 8.63972 | 1116 ft | 143 kts | 250° |
| 2026-05-05 10:20 | 50.04926 | 8.62518 | 944 ft | 144 kts | 250° |
| 2026-05-05 10:20 | 50.04571 | 8.61049 | 725 ft | 145 kts | 250° |
| 2026-05-05 10:20 | 50.04240 | 8.59624 | 536 ft | 139 kts | 250° |
| 2026-05-05 10:20 | 50.03912 | 8.58250 | 379 ft | 133 kts | 250° |
| 2026-05-05 10:21 | 50.03628 | 8.57067 | 362 ft | 97 kts | 249° |
| 2026-05-05 10:21 | 50.03441 | 8.56288 | 366 ft | 56 kts | 250° |
| 2026-05-05 10:21 | 50.03352 | 8.55915 | 358 ft | 24 kts | 250° |
| 2026-05-05 10:21 | 50.03312 | 8.55656 | 357 ft | 23 kts | 265° |
| 2026-05-05 10:22 | 50.03325 | 8.55403 | 355 ft | 24 kts | 279° |
| 2026-05-05 10:22 | 50.03336 | 8.55297 | 357 ft | 0 kts | 279° |
| 2026-05-05 10:22 | 50.03343 | 8.55229 | 352 ft | 14 kts | 279° |
| 2026-05-05 10:22 | 50.03360 | 8.55069 | 355 ft | 16 kts | 279° |
| 2026-05-05 10:23 | 50.03352 | 8.54887 | 352 ft | 19 kts | 252° |
| 2026-05-05 10:23 | 50.03303 | 8.54684 | 356 ft | 22 kts | 249° |
| 2026-05-05 10:23 | 50.03282 | 8.54506 | 353 ft | 6 kts | 307° |
| 2026-05-05 10:23 | 50.03329 | 8.54468 | 353 ft | 9 kts | 339° |
| 2026-05-05 10:24 | 50.03393 | 8.54434 | 351 ft | 11 kts | 341° |
| 2026-05-05 10:24 | 50.03462 | 8.54397 | 357 ft | 11 kts | 340° |
| 2026-05-05 10:24 | 50.03542 | 8.54352 | 356 ft | 14 kts | 339° |
| 2026-05-05 10:24 | 50.03618 | 8.54312 | 354 ft | 5 kts | 352° |
| 2026-05-05 10:25 | 50.03655 | 8.54334 | 353 ft | 6 kts | 44° |
| 2026-05-05 10:25 | 50.03678 | 8.54405 | 357 ft | 9 kts | 68° |
| 2026-05-05 10:25 | 50.03703 | 8.54506 | 354 ft | 11 kts | 69° |
| 2026-05-05 10:25 | 50.03729 | 8.54617 | 358 ft | 11 kts | 70° |
| 2026-05-05 10:26 | 50.03757 | 8.54737 | 359 ft | 12 kts | 70° |
| 2026-05-05 10:26 | 50.03788 | 8.54867 | 361 ft | 13 kts | 69° |
| 2026-05-05 10:26 | 50.03822 | 8.55004 | 361 ft | 14 kts | 69° |
| 2026-05-05 10:26 | 50.03857 | 8.55150 | 362 ft | 15 kts | 70° |
| 2026-05-05 10:27 | 50.03894 | 8.55307 | 364 ft | 16 kts | 70° |
| 2026-05-05 10:27 | 50.03920 | 8.55419 | 360 ft | 17 kts | 70° |
| 2026-05-05 10:27 | 50.03962 | 8.55598 | 364 ft | 18 kts | 69° |
| 2026-05-05 10:27 | 50.04008 | 8.55785 | 363 ft | 18 kts | 70° |
| 2026-05-05 10:28 | 50.04052 | 8.55939 | 365 ft | 12 kts | 44° |
| 2026-05-05 10:28 | 50.04111 | 8.55956 | 363 ft | 7 kts | 351° |
| 2026-05-05 10:28 | 50.04153 | 8.55939 | 364 ft | 6 kts | 340° |
| 2026-05-05 10:28 | 50.04197 | 8.55921 | 362 ft | 8 kts | 358° |
| 2026-05-05 10:29 | 50.04257 | 8.55951 | 369 ft | 10 kts | 14° |
| 2026-05-05 10:29 | 50.04327 | 8.55935 | 369 ft | 11 kts | 342° |
| 2026-05-05 10:29 | 50.04408 | 8.55910 | 364 ft | 13 kts | 2° |
| 2026-05-05 10:29 | 50.04489 | 8.55939 | 370 ft | 11 kts | 17° |
| 2026-05-05 10:30 | 50.04560 | 8.55973 | 367 ft | 10 kts | 11° |
| 2026-05-05 10:30 | 50.04619 | 8.55958 | 369 ft | 6 kts | 342° |
| 2026-05-05 10:30 | 50.04626 | 8.55954 | 368 ft | 1 kts | 340° |
| 2026-05-05 10:30 | 50.04628 | 8.55952 | 368 ft | 1 kts | 340° |
| 2026-05-05 10:31 | 50.04637 | 8.55948 | 369 ft | 4 kts | 340° |
| 2026-05-05 10:31 | 50.04644 | 8.55944 | 369 ft | 0 kts | 340° |